BAW544K EGLL-LIPE
Flight info
| Callsign | BAW544K |
|---|---|
| Flight time | 1h 41m |
| Altitude | 35000 |
| Route | DET L6 DVR UL9 KONAN DCT KOK DCT SISGA DCT RITAX DCT KRH DCT TEDGO DCT BATUB DCT TIRUL M738 NATAG DCT LORLO DCT RENTA DCT UNTAD DCT NEGIK DCT ADOSA M738 BENUS |
| Aircraft | A21N/M-SDE3FGHIJ1LRWXYZ/SB1G1 |
Departure
| Time | 2026-05-07 19:07 |
|---|---|
| Airport | London Heathrow Airport (EGLL) |
Arrival
| Time | 2026-05-07 20:49 |
|---|---|
| Airport | Bologna Guglielmo Marconi Airport (LIPE) |
| Time | Latitude | Longitude | Altitude | Speed | Heading |
|---|---|---|---|---|---|
| 2026-05-07 18:50 | 51.46979 | -0.48037 | 92 ft | 0 kts | 270° |
| 2026-05-07 18:59 | 51.46979 | -0.48017 | 92 ft | 4 kts | 268° |
| 2026-05-07 18:59 | 51.46981 | -0.47974 | 92 ft | 4 kts | 264° |
| 2026-05-07 18:59 | 51.46985 | -0.47932 | 92 ft | 4 kts | 256° |
| 2026-05-07 19:00 | 51.46994 | -0.47893 | 92 ft | 4 kts | 234° |
| 2026-05-07 19:00 | 51.47010 | -0.47872 | 92 ft | 2 kts | 181° |
| 2026-05-07 19:00 | 51.47012 | -0.47872 | 92 ft | 1 kts | 180° |
| 2026-05-07 19:02 | 51.47000 | -0.47872 | 92 ft | 6 kts | 180° |
| 2026-05-07 19:02 | 51.46938 | -0.47872 | 92 ft | 10 kts | 179° |
| 2026-05-07 19:02 | 51.46860 | -0.47872 | 92 ft | 12 kts | 180° |
| 2026-05-07 19:03 | 51.46768 | -0.47873 | 92 ft | 14 kts | 190° |
| 2026-05-07 19:03 | 51.46743 | -0.48022 | 92 ft | 15 kts | 270° |
| 2026-05-07 19:03 | 51.46743 | -0.48098 | 92 ft | 0 kts | 270° |
| 2026-05-07 19:04 | 51.46743 | -0.48100 | 92 ft | 1 kts | 270° |
| 2026-05-07 19:04 | 51.46743 | -0.48129 | 92 ft | 4 kts | 270° |
| 2026-05-07 19:04 | 51.46740 | -0.48180 | 92 ft | 6 kts | 246° |
| 2026-05-07 19:04 | 51.46701 | -0.48215 | 92 ft | 8 kts | 185° |
| 2026-05-07 19:05 | 51.46641 | -0.48215 | 92 ft | 10 kts | 179° |
| 2026-05-07 19:05 | 51.46571 | -0.48215 | 93 ft | 10 kts | 180° |
| 2026-05-07 19:05 | 51.46495 | -0.48214 | 94 ft | 9 kts | 179° |
| 2026-05-07 19:05 | 51.46478 | -0.48161 | 93 ft | 0 kts | 88° |
| 2026-05-07 19:06 | 51.46478 | -0.48159 | 95 ft | 2 kts | 88° |
| 2026-05-07 19:07 | 51.46480 | -0.47785 | 92 ft | 69 kts | 90° |
| 2026-05-07 19:07 | 51.46482 | -0.46671 | 95 ft | 128 kts | 90° |
| 2026-05-07 19:07 | 51.46486 | -0.44975 | 148 ft | 167 kts | 90° |
| 2026-05-07 19:07 | 51.46508 | -0.43173 | 794 ft | 160 kts | 90° |
| 2026-05-07 19:08 | 51.46494 | -0.41382 | 1319 ft | 172 kts | 102° |
| 2026-05-07 19:08 | 51.46031 | -0.39487 | 1777 ft | 193 kts | 122° |
| 2026-05-07 19:08 | 51.45055 | -0.37908 | 2348 ft | 209 kts | 146° |
| 2026-05-07 19:08 | 51.43919 | -0.36254 | 2751 ft | 236 kts | 120° |
| 2026-05-07 19:09 | 51.43386 | -0.33673 | 3401 ft | 251 kts | 103° |
| 2026-05-07 19:09 | 51.43036 | -0.30892 | 4271 ft | 256 kts | 102° |
| 2026-05-07 19:09 | 51.42675 | -0.28046 | 5096 ft | 264 kts | 102° |
| 2026-05-07 19:09 | 51.42297 | -0.25144 | 5660 ft | 268 kts | 103° |
| 2026-05-07 19:10 | 51.41906 | -0.22198 | 5908 ft | 271 kts | 103° |
| 2026-05-07 19:10 | 51.41507 | -0.19237 | 5998 ft | 272 kts | 103° |
| 2026-05-07 19:10 | 51.41373 | -0.18242 | 6012 ft | 272 kts | 103° |
| 2026-05-07 19:11 | 51.41064 | -0.15970 | 6027 ft | 272 kts | 103° |
| 2026-05-07 19:11 | 51.40662 | -0.13010 | 6217 ft | 272 kts | 103° |
| 2026-05-07 19:11 | 51.40257 | -0.10051 | 7018 ft | 277 kts | 103° |
| 2026-05-07 19:11 | 51.39840 | -0.07029 | 7893 ft | 280 kts | 103° |
| 2026-05-07 19:12 | 51.39416 | -0.03963 | 8759 ft | 284 kts | 103° |
| 2026-05-07 19:12 | 51.38986 | -0.00854 | 9583 ft | 288 kts | 103° |
| 2026-05-07 19:12 | 51.38546 | 0.02313 | 10351 ft | 297 kts | 103° |
| 2026-05-07 19:12 | 51.38081 | 0.05658 | 10743 ft | 318 kts | 103° |
| 2026-05-07 19:13 | 51.37580 | 0.09236 | 11070 ft | 341 kts | 104° |
| 2026-05-07 19:13 | 51.37050 | 0.13012 | 11593 ft | 353 kts | 103° |
| 2026-05-07 19:13 | 51.36647 | 0.16923 | 12335 ft | 358 kts | 98° |
| 2026-05-07 19:13 | 51.36398 | 0.20911 | 13100 ft | 362 kts | 96° |
| 2026-05-07 19:14 | 51.36176 | 0.24956 | 13826 ft | 367 kts | 96° |
| 2026-05-07 19:14 | 51.35959 | 0.29041 | 14535 ft | 371 kts | 96° |
| 2026-05-07 19:14 | 51.35737 | 0.33178 | 15221 ft | 375 kts | 96° |
| 2026-05-07 19:14 | 51.35512 | 0.37361 | 15877 ft | 380 kts | 96° |
| 2026-05-07 19:15 | 51.35284 | 0.41540 | 16509 ft | 384 kts | 96° |
| 2026-05-07 19:15 | 51.35052 | 0.45814 | 17134 ft | 388 kts | 96° |
| 2026-05-07 19:15 | 51.34815 | 0.50137 | 17726 ft | 392 kts | 96° |
| 2026-05-07 19:15 | 51.34576 | 0.54493 | 18290 ft | 396 kts | 96° |
| 2026-05-07 19:16 | 51.34332 | 0.58904 | 18859 ft | 399 kts | 96° |
| 2026-05-07 19:16 | 51.34084 | 0.63354 | 19405 ft | 403 kts | 96° |
| 2026-05-07 19:16 | 51.33835 | 0.67830 | 19926 ft | 406 kts | 96° |
| 2026-05-07 19:16 | 51.33585 | 0.72360 | 20452 ft | 410 kts | 96° |
| 2026-05-07 19:17 | 51.33335 | 0.76867 | 20953 ft | 413 kts | 96° |
| 2026-05-07 19:17 | 51.33080 | 0.81468 | 21447 ft | 416 kts | 96° |
| 2026-05-07 19:17 | 51.32823 | 0.86097 | 21940 ft | 420 kts | 96° |
| 2026-05-07 19:17 | 51.32563 | 0.90773 | 22414 ft | 423 kts | 96° |
| 2026-05-07 19:18 | 51.32301 | 0.95486 | 22886 ft | 426 kts | 96° |
| 2026-05-07 19:18 | 51.32036 | 1.00219 | 23351 ft | 429 kts | 96° |
| 2026-05-07 19:18 | 51.31770 | 1.04985 | 23806 ft | 433 kts | 96° |
| 2026-05-07 19:18 | 51.31501 | 1.09799 | 24261 ft | 436 kts | 96° |
| 2026-05-07 19:19 | 51.31231 | 1.14646 | 24714 ft | 439 kts | 96° |
| 2026-05-07 19:19 | 51.30958 | 1.19519 | 25159 ft | 441 kts | 96° |
| 2026-05-07 19:19 | 51.30681 | 1.24415 | 25591 ft | 444 kts | 96° |
| 2026-05-07 19:19 | 51.30401 | 1.29341 | 26009 ft | 446 kts | 96° |
| 2026-05-07 19:20 | 51.30121 | 1.34234 | 26405 ft | 449 kts | 96° |
| 2026-05-07 19:20 | 51.29836 | 1.39215 | 26791 ft | 452 kts | 96° |
| 2026-05-07 19:20 | 51.29456 | 1.44209 | 27156 ft | 453 kts | 103° |
| 2026-05-07 19:20 | 51.28459 | 1.48977 | 27508 ft | 453 kts | 116° |
| 2026-05-07 19:21 | 51.27109 | 1.53539 | 27871 ft | 455 kts | 117° |
| 2026-05-07 19:21 | 51.25719 | 1.58094 | 28218 ft | 457 kts | 117° |
| 2026-05-07 19:21 | 51.24329 | 1.62669 | 28551 ft | 460 kts | 117° |
| 2026-05-07 19:21 | 51.22943 | 1.67272 | 28883 ft | 462 kts | 117° |
| 2026-05-07 19:22 | 51.22020 | 1.70347 | 29092 ft | 463 kts | 117° |
| 2026-05-07 19:22 | 51.20627 | 1.74987 | 29426 ft | 464 kts | 117° |
| 2026-05-07 19:22 | 51.19233 | 1.79626 | 29801 ft | 464 kts | 117° |
| 2026-05-07 19:22 | 51.17842 | 1.84256 | 30208 ft | 463 kts | 117° |
| 2026-05-07 19:23 | 51.16468 | 1.88886 | 30589 ft | 462 kts | 117° |
| 2026-05-07 19:23 | 51.15095 | 1.93523 | 30966 ft | 462 kts | 117° |
| 2026-05-07 19:23 | 51.13723 | 1.98148 | 31339 ft | 461 kts | 117° |
| 2026-05-07 19:23 | 51.12346 | 2.02765 | 31698 ft | 461 kts | 117° |
| 2026-05-07 19:24 | 51.10970 | 2.07361 | 32037 ft | 460 kts | 117° |
| 2026-05-07 19:24 | 51.09593 | 2.11952 | 32375 ft | 460 kts | 117° |
| 2026-05-07 19:24 | 51.08216 | 2.16540 | 32697 ft | 459 kts | 117° |
| 2026-05-07 19:24 | 51.06835 | 2.21133 | 32999 ft | 459 kts | 117° |
| 2026-05-07 19:25 | 51.05457 | 2.25706 | 33313 ft | 458 kts | 117° |
| 2026-05-07 19:25 | 51.04080 | 2.30270 | 33600 ft | 458 kts | 117° |
| 2026-05-07 19:25 | 51.02701 | 2.34826 | 33872 ft | 457 kts | 117° |
| 2026-05-07 19:25 | 51.01319 | 2.39389 | 34140 ft | 457 kts | 117° |
| 2026-05-07 19:26 | 50.99956 | 2.43879 | 34381 ft | 457 kts | 117° |
| 2026-05-07 19:26 | 50.98569 | 2.48437 | 34636 ft | 457 kts | 117° |
| 2026-05-07 19:26 | 50.97181 | 2.52987 | 34874 ft | 457 kts | 117° |
| 2026-05-07 19:26 | 50.95794 | 2.57526 | 35072 ft | 458 kts | 117° |
| 2026-05-07 19:27 | 50.93016 | 2.66605 | 35106 ft | 457 kts | 117° |
| 2026-05-07 19:27 | 50.90234 | 2.75657 | 35084 ft | 457 kts | 118° |
| 2026-05-07 19:28 | 50.87445 | 2.84698 | 35078 ft | 457 kts | 118° |
| 2026-05-07 19:28 | 50.84649 | 2.93730 | 35084 ft | 457 kts | 118° |
| 2026-05-07 19:29 | 50.81842 | 3.02762 | 35079 ft | 457 kts | 118° |
| 2026-05-07 19:29 | 50.79028 | 3.11775 | 35070 ft | 457 kts | 118° |
| 2026-05-07 19:30 | 50.76225 | 3.20728 | 35080 ft | 458 kts | 118° |
| 2026-05-07 19:30 | 50.73397 | 3.29733 | 35079 ft | 458 kts | 118° |
| 2026-05-07 19:31 | 50.70551 | 3.38761 | 35089 ft | 459 kts | 118° |
| 2026-05-07 19:31 | 50.67700 | 3.47766 | 35075 ft | 459 kts | 118° |
| 2026-05-07 19:32 | 50.64840 | 3.56765 | 35074 ft | 459 kts | 118° |
| 2026-05-07 19:32 | 50.61971 | 3.65761 | 35077 ft | 460 kts | 118° |
| 2026-05-07 19:33 | 50.59111 | 3.74712 | 35085 ft | 460 kts | 118° |
| 2026-05-07 19:33 | 50.56220 | 3.83714 | 35085 ft | 460 kts | 118° |
| 2026-05-07 19:34 | 50.53322 | 3.92703 | 35079 ft | 461 kts | 118° |
| 2026-05-07 19:34 | 50.50416 | 4.01690 | 35078 ft | 461 kts | 118° |
| 2026-05-07 19:35 | 50.47500 | 4.10668 | 35075 ft | 461 kts | 118° |
| 2026-05-07 19:35 | 50.44579 | 4.19639 | 35080 ft | 461 kts | 118° |
| 2026-05-07 19:36 | 50.41669 | 4.28530 | 35082 ft | 461 kts | 119° |
| 2026-05-07 19:36 | 50.38732 | 4.37480 | 35082 ft | 461 kts | 119° |
| 2026-05-07 19:37 | 50.35794 | 4.46404 | 35084 ft | 461 kts | 119° |
| 2026-05-07 19:37 | 50.32848 | 4.55322 | 35084 ft | 460 kts | 119° |
| 2026-05-07 19:38 | 50.29906 | 4.64188 | 35087 ft | 459 kts | 119° |
| 2026-05-07 19:38 | 50.26954 | 4.73059 | 35085 ft | 459 kts | 119° |
| 2026-05-07 19:39 | 50.24004 | 4.81901 | 35079 ft | 458 kts | 119° |
| 2026-05-07 19:39 | 50.21063 | 4.90660 | 35078 ft | 458 kts | 119° |
| 2026-05-07 19:40 | 50.18097 | 4.99475 | 35082 ft | 458 kts | 119° |
| 2026-05-07 19:40 | 50.15122 | 5.08281 | 35081 ft | 458 kts | 119° |
| 2026-05-07 19:41 | 50.12140 | 5.17065 | 35074 ft | 458 kts | 119° |
| 2026-05-07 19:41 | 50.09179 | 5.25790 | 35072 ft | 458 kts | 119° |
| 2026-05-07 19:42 | 50.06195 | 5.34554 | 35070 ft | 458 kts | 119° |
| 2026-05-07 19:42 | 50.03195 | 5.43293 | 35068 ft | 458 kts | 119° |
| 2026-05-07 19:43 | 50.00179 | 5.52046 | 35070 ft | 458 kts | 119° |
| 2026-05-07 19:43 | 49.97177 | 5.60778 | 35057 ft | 459 kts | 119° |
| 2026-05-07 19:44 | 49.94164 | 5.69459 | 35062 ft | 459 kts | 119° |
| 2026-05-07 19:44 | 49.91439 | 5.77310 | 35055 ft | 460 kts | 119° |
| 2026-05-07 19:45 | 49.88393 | 5.86073 | 35048 ft | 459 kts | 120° |
| 2026-05-07 19:45 | 49.85357 | 5.94768 | 35051 ft | 459 kts | 120° |
| 2026-05-07 19:46 | 49.82828 | 6.01980 | 35050 ft | 459 kts | 120° |
| 2026-05-07 19:46 | 49.79826 | 6.10525 | 35050 ft | 459 kts | 120° |
| 2026-05-07 19:47 | 49.76779 | 6.19206 | 35051 ft | 459 kts | 120° |
| 2026-05-07 19:47 | 49.73712 | 6.27863 | 35051 ft | 459 kts | 120° |
| 2026-05-07 19:48 | 49.70627 | 6.36534 | 35050 ft | 460 kts | 120° |
| 2026-05-07 19:48 | 49.67568 | 6.45128 | 35050 ft | 460 kts | 120° |
| 2026-05-07 19:49 | 49.64476 | 6.53805 | 35051 ft | 461 kts | 120° |
| 2026-05-07 19:49 | 49.61357 | 6.62481 | 35060 ft | 461 kts | 120° |
| 2026-05-07 19:50 | 49.58244 | 6.71118 | 35059 ft | 462 kts | 120° |
| 2026-05-07 19:50 | 49.55141 | 6.79731 | 35068 ft | 462 kts | 120° |
| 2026-05-07 19:51 | 49.52004 | 6.88406 | 35066 ft | 462 kts | 121° |
| 2026-05-07 19:51 | 49.48877 | 6.96992 | 35073 ft | 462 kts | 120° |
| 2026-05-07 19:52 | 49.45738 | 7.05640 | 35079 ft | 462 kts | 121° |
| 2026-05-07 19:52 | 49.42589 | 7.14257 | 35081 ft | 463 kts | 121° |
| 2026-05-07 19:53 | 49.39426 | 7.22895 | 35076 ft | 463 kts | 121° |
| 2026-05-07 19:53 | 49.36273 | 7.31430 | 35072 ft | 463 kts | 121° |
| 2026-05-07 19:54 | 49.33097 | 7.40044 | 35073 ft | 463 kts | 121° |
| 2026-05-07 19:54 | 49.29919 | 7.48625 | 35066 ft | 462 kts | 121° |
| 2026-05-07 19:55 | 49.26728 | 7.57192 | 35063 ft | 462 kts | 121° |
| 2026-05-07 19:55 | 49.23535 | 7.65757 | 35073 ft | 463 kts | 121° |
| 2026-05-07 19:56 | 49.20354 | 7.74250 | 35069 ft | 463 kts | 121° |
| 2026-05-07 19:56 | 49.17147 | 7.82795 | 35071 ft | 463 kts | 121° |
| 2026-05-07 19:57 | 49.13930 | 7.91341 | 35068 ft | 464 kts | 121° |
| 2026-05-07 19:57 | 49.10710 | 7.99872 | 35081 ft | 464 kts | 121° |
| 2026-05-07 19:58 | 49.07471 | 8.08408 | 35081 ft | 465 kts | 121° |
| 2026-05-07 19:58 | 49.04241 | 8.16875 | 35076 ft | 465 kts | 121° |
| 2026-05-07 19:59 | 49.00993 | 8.25405 | 35088 ft | 466 kts | 122° |
| 2026-05-07 19:59 | 48.97731 | 8.33928 | 35081 ft | 466 kts | 122° |
| 2026-05-07 20:00 | 48.94462 | 8.42442 | 35084 ft | 466 kts | 122° |
| 2026-05-07 20:00 | 48.91176 | 8.50964 | 35078 ft | 467 kts | 122° |
| 2026-05-07 20:01 | 48.87882 | 8.59466 | 35076 ft | 467 kts | 122° |
| 2026-05-07 20:01 | 48.84591 | 8.67962 | 35072 ft | 467 kts | 122° |
| 2026-05-07 20:02 | 48.81289 | 8.76453 | 35077 ft | 467 kts | 122° |
| 2026-05-07 20:02 | 48.77991 | 8.84891 | 35074 ft | 467 kts | 122° |
| 2026-05-07 20:03 | 48.74676 | 8.93356 | 35078 ft | 467 kts | 122° |
| 2026-05-07 20:03 | 48.71347 | 9.01821 | 35082 ft | 468 kts | 122° |
| 2026-05-07 20:04 | 48.68017 | 9.10287 | 35081 ft | 467 kts | 122° |
| 2026-05-07 20:04 | 48.64676 | 9.18721 | 35082 ft | 467 kts | 124° |
| 2026-05-07 20:05 | 48.60387 | 9.25913 | 35080 ft | 459 kts | 148° |
| 2026-05-07 20:05 | 48.57610 | 9.28209 | 35079 ft | 453 kts | 161° |
| 2026-05-07 20:05 | 48.54642 | 9.29788 | 35091 ft | 451 kts | 165° |
| 2026-05-07 20:06 | 48.48698 | 9.32673 | 35084 ft | 452 kts | 165° |
| 2026-05-07 20:06 | 48.42730 | 9.35680 | 35084 ft | 452 kts | 165° |
| 2026-05-07 20:07 | 48.36757 | 9.38724 | 35083 ft | 453 kts | 165° |
| 2026-05-07 20:07 | 48.30786 | 9.41765 | 35079 ft | 453 kts | 165° |
| 2026-05-07 20:08 | 48.24819 | 9.44794 | 35082 ft | 452 kts | 165° |
| 2026-05-07 20:08 | 48.18852 | 9.47818 | 35082 ft | 452 kts | 165° |
| 2026-05-07 20:09 | 48.13892 | 9.50324 | 35072 ft | 452 kts | 165° |
| 2026-05-07 20:10 | 48.03970 | 9.55328 | 35068 ft | 453 kts | 164° |
| 2026-05-07 20:10 | 47.99278 | 9.58929 | 35071 ft | 460 kts | 149° |
| 2026-05-07 20:11 | 47.94008 | 9.64393 | 35069 ft | 461 kts | 148° |
| 2026-05-07 20:11 | 47.88730 | 9.69836 | 35073 ft | 460 kts | 149° |
| 2026-05-07 20:12 | 47.85982 | 9.72632 | 35066 ft | 460 kts | 149° |
| 2026-05-07 20:12 | 47.80692 | 9.78011 | 35060 ft | 460 kts | 149° |
| 2026-05-07 20:13 | 47.75393 | 9.83372 | 35062 ft | 460 kts | 149° |
| 2026-05-07 20:13 | 47.70128 | 9.88705 | 35060 ft | 460 kts | 149° |
| 2026-05-07 20:14 | 47.64829 | 9.94049 | 35062 ft | 460 kts | 149° |
| 2026-05-07 20:14 | 47.59528 | 9.99379 | 35061 ft | 460 kts | 149° |
| 2026-05-07 20:15 | 47.54220 | 10.04712 | 35060 ft | 460 kts | 150° |
| 2026-05-07 20:15 | 47.48913 | 10.10028 | 35061 ft | 460 kts | 150° |
| 2026-05-07 20:16 | 47.43641 | 10.15304 | 35062 ft | 461 kts | 150° |
| 2026-05-07 20:16 | 47.38336 | 10.20589 | 35058 ft | 460 kts | 150° |
| 2026-05-07 20:17 | 47.33027 | 10.25864 | 35059 ft | 460 kts | 150° |
| 2026-05-07 20:17 | 47.27721 | 10.31130 | 35069 ft | 460 kts | 150° |
| 2026-05-07 20:18 | 47.22399 | 10.36395 | 35069 ft | 460 kts | 150° |
| 2026-05-07 20:18 | 47.17082 | 10.41645 | 35072 ft | 460 kts | 151° |
| 2026-05-07 20:19 | 47.11795 | 10.46844 | 35060 ft | 460 kts | 151° |
| 2026-05-07 20:19 | 47.06432 | 10.52001 | 35062 ft | 458 kts | 156° |
| 2026-05-07 20:20 | 47.00581 | 10.55268 | 35053 ft | 448 kts | 168° |
| 2026-05-07 20:20 | 46.94601 | 10.57903 | 35056 ft | 448 kts | 168° |
| 2026-05-07 20:21 | 46.88618 | 10.60586 | 35056 ft | 449 kts | 168° |
| 2026-05-07 20:21 | 46.82638 | 10.63268 | 35049 ft | 449 kts | 168° |
| 2026-05-07 20:22 | 46.76696 | 10.65940 | 35054 ft | 449 kts | 168° |
| 2026-05-07 20:22 | 46.70725 | 10.68609 | 35054 ft | 448 kts | 169° |
| 2026-05-07 20:23 | 46.64765 | 10.71262 | 35064 ft | 448 kts | 169° |
| 2026-05-07 20:23 | 46.58787 | 10.73931 | 35064 ft | 449 kts | 169° |
| 2026-05-07 20:24 | 46.52818 | 10.76573 | 35064 ft | 448 kts | 169° |
| 2026-05-07 20:24 | 46.46877 | 10.79194 | 35072 ft | 448 kts | 169° |
| 2026-05-07 20:25 | 46.40903 | 10.81823 | 35064 ft | 448 kts | 169° |
| 2026-05-07 20:25 | 46.34927 | 10.84447 | 35061 ft | 448 kts | 169° |
| 2026-05-07 20:26 | 46.28902 | 10.85921 | 35060 ft | 431 kts | 189° |
| 2026-05-07 20:26 | 46.23024 | 10.84797 | 34957 ft | 424 kts | 190° |
| 2026-05-07 20:26 | 46.20070 | 10.84917 | 34615 ft | 437 kts | 179° |
| 2026-05-07 20:27 | 46.17034 | 10.85752 | 34093 ft | 439 kts | 174° |
| 2026-05-07 20:27 | 46.14096 | 10.86743 | 33507 ft | 439 kts | 173° |
| 2026-05-07 20:27 | 46.11119 | 10.87756 | 32879 ft | 440 kts | 174° |
| 2026-05-07 20:27 | 46.08132 | 10.88745 | 32213 ft | 442 kts | 174° |
| 2026-05-07 20:28 | 46.05125 | 10.89712 | 31565 ft | 443 kts | 174° |
| 2026-05-07 20:28 | 46.02116 | 10.90668 | 30971 ft | 442 kts | 174° |
| 2026-05-07 20:28 | 45.99110 | 10.91625 | 30399 ft | 441 kts | 174° |
| 2026-05-07 20:28 | 45.96112 | 10.92585 | 29817 ft | 440 kts | 175° |
| 2026-05-07 20:29 | 45.93134 | 10.93536 | 29235 ft | 438 kts | 175° |
| 2026-05-07 20:29 | 45.90160 | 10.94484 | 28657 ft | 437 kts | 174° |
| 2026-05-07 20:29 | 45.87198 | 10.95427 | 28085 ft | 434 kts | 174° |
| 2026-05-07 20:29 | 45.84286 | 10.96351 | 27513 ft | 432 kts | 174° |
| 2026-05-07 20:30 | 45.81358 | 10.97280 | 26915 ft | 430 kts | 173° |
| 2026-05-07 20:30 | 45.78434 | 10.98213 | 26312 ft | 428 kts | 173° |
| 2026-05-07 20:30 | 45.75535 | 10.99137 | 25731 ft | 425 kts | 173° |
| 2026-05-07 20:30 | 45.72649 | 11.00052 | 25181 ft | 423 kts | 172° |
| 2026-05-07 20:31 | 45.69774 | 11.00960 | 24596 ft | 421 kts | 172° |
| 2026-05-07 20:31 | 45.66916 | 11.01864 | 23999 ft | 419 kts | 171° |
| 2026-05-07 20:31 | 45.64073 | 11.02724 | 23426 ft | 416 kts | 173° |
| 2026-05-07 20:31 | 45.61256 | 11.03425 | 22865 ft | 412 kts | 174° |
| 2026-05-07 20:32 | 45.58481 | 11.04100 | 22305 ft | 407 kts | 174° |
| 2026-05-07 20:32 | 45.55711 | 11.04772 | 21736 ft | 401 kts | 174° |
| 2026-05-07 20:32 | 45.52967 | 11.05434 | 21158 ft | 397 kts | 173° |
| 2026-05-07 20:32 | 45.50259 | 11.06087 | 20620 ft | 393 kts | 173° |
| 2026-05-07 20:33 | 45.47578 | 11.06737 | 20094 ft | 388 kts | 173° |
| 2026-05-07 20:33 | 45.44922 | 11.07380 | 19588 ft | 383 kts | 173° |
| 2026-05-07 20:33 | 45.42316 | 11.08009 | 19098 ft | 378 kts | 173° |
| 2026-05-07 20:33 | 45.39743 | 11.08630 | 18635 ft | 372 kts | 173° |
| 2026-05-07 20:34 | 45.37206 | 11.09242 | 18185 ft | 367 kts | 173° |
| 2026-05-07 20:34 | 45.34687 | 11.09848 | 17747 ft | 367 kts | 173° |
| 2026-05-07 20:34 | 45.32167 | 11.10453 | 17296 ft | 367 kts | 173° |
| 2026-05-07 20:34 | 45.29647 | 11.11058 | 16840 ft | 367 kts | 173° |
| 2026-05-07 20:35 | 45.27125 | 11.11667 | 16394 ft | 367 kts | 173° |
| 2026-05-07 20:35 | 45.24603 | 11.12274 | 15936 ft | 367 kts | 172° |
| 2026-05-07 20:35 | 45.22079 | 11.12880 | 15483 ft | 367 kts | 172° |
| 2026-05-07 20:35 | 45.19564 | 11.13484 | 15046 ft | 366 kts | 172° |
| 2026-05-07 20:36 | 45.17050 | 11.14086 | 14597 ft | 366 kts | 172° |
| 2026-05-07 20:36 | 45.14545 | 11.14682 | 14142 ft | 363 kts | 172° |
| 2026-05-07 20:36 | 45.12104 | 11.15266 | 13694 ft | 357 kts | 172° |
| 2026-05-07 20:36 | 45.09669 | 11.15847 | 13260 ft | 352 kts | 172° |
| 2026-05-07 20:37 | 45.07272 | 11.16419 | 12856 ft | 345 kts | 172° |
| 2026-05-07 20:37 | 45.04925 | 11.16980 | 12459 ft | 339 kts | 172° |
| 2026-05-07 20:37 | 45.02615 | 11.17527 | 12038 ft | 336 kts | 172° |
| 2026-05-07 20:37 | 45.00305 | 11.18076 | 11623 ft | 337 kts | 172° |
| 2026-05-07 20:38 | 44.97995 | 11.18627 | 11219 ft | 337 kts | 172° |
| 2026-05-07 20:38 | 44.95693 | 11.19176 | 10852 ft | 333 kts | 172° |
| 2026-05-07 20:38 | 44.93431 | 11.19699 | 10621 ft | 322 kts | 174° |
| 2026-05-07 20:38 | 44.91251 | 11.19576 | 10448 ft | 308 kts | 193° |
| 2026-05-07 20:39 | 44.89303 | 11.18506 | 10287 ft | 294 kts | 211° |
| 2026-05-07 20:39 | 44.87643 | 11.16957 | 10020 ft | 289 kts | 216° |
| 2026-05-07 20:39 | 44.86002 | 11.15312 | 9659 ft | 288 kts | 216° |
| 2026-05-07 20:39 | 44.84376 | 11.13701 | 9286 ft | 285 kts | 216° |
| 2026-05-07 20:40 | 44.82737 | 11.12103 | 8900 ft | 284 kts | 215° |
| 2026-05-07 20:40 | 44.81110 | 11.10533 | 8498 ft | 283 kts | 214° |
| 2026-05-07 20:40 | 44.79488 | 11.08984 | 8011 ft | 280 kts | 214° |
| 2026-05-07 20:40 | 44.77889 | 11.07460 | 7492 ft | 274 kts | 214° |
| 2026-05-07 20:41 | 44.76323 | 11.05969 | 6968 ft | 269 kts | 214° |
| 2026-05-07 20:41 | 44.74785 | 11.04508 | 6438 ft | 264 kts | 214° |
| 2026-05-07 20:41 | 44.73263 | 11.03063 | 5932 ft | 264 kts | 214° |
| 2026-05-07 20:41 | 44.71753 | 11.01628 | 5526 ft | 260 kts | 214° |
| 2026-05-07 20:42 | 44.71182 | 11.01086 | 5367 ft | 259 kts | 214° |
| 2026-05-07 20:42 | 44.69992 | 10.99953 | 4973 ft | 264 kts | 214° |
| 2026-05-07 20:42 | 44.68486 | 10.98526 | 4976 ft | 253 kts | 213° |
| 2026-05-07 20:42 | 44.67005 | 10.97254 | 5110 ft | 253 kts | 203° |
| 2026-05-07 20:43 | 44.65207 | 10.96878 | 4955 ft | 264 kts | 171° |
| 2026-05-07 20:43 | 44.63584 | 10.97882 | 4772 ft | 255 kts | 140° |
| 2026-05-07 20:43 | 44.62610 | 10.99904 | 4402 ft | 249 kts | 107° |
| 2026-05-07 20:43 | 44.62288 | 11.02231 | 4040 ft | 237 kts | 99° |
| 2026-05-07 20:44 | 44.61999 | 11.04450 | 3704 ft | 224 kts | 105° |
| 2026-05-07 20:44 | 44.61535 | 11.06476 | 3391 ft | 212 kts | 113° |
| 2026-05-07 20:44 | 44.60929 | 11.08315 | 3113 ft | 205 kts | 120° |
| 2026-05-07 20:44 | 44.60303 | 11.10041 | 2917 ft | 192 kts | 118° |
| 2026-05-07 20:45 | 44.59711 | 11.11684 | 2675 ft | 186 kts | 117° |
| 2026-05-07 20:45 | 44.59140 | 11.13276 | 2411 ft | 178 kts | 117° |
| 2026-05-07 20:45 | 44.58600 | 11.14779 | 2151 ft | 167 kts | 117° |
| 2026-05-07 20:45 | 44.58107 | 11.16157 | 1960 ft | 151 kts | 117° |
| 2026-05-07 20:46 | 44.57669 | 11.17374 | 1743 ft | 133 kts | 116° |
| 2026-05-07 20:46 | 44.57257 | 11.18524 | 1555 ft | 131 kts | 116° |
| 2026-05-07 20:46 | 44.56848 | 11.19665 | 1383 ft | 131 kts | 116° |
| 2026-05-07 20:46 | 44.56440 | 11.20804 | 1213 ft | 130 kts | 115° |
| 2026-05-07 20:47 | 44.56032 | 11.21940 | 1041 ft | 130 kts | 116° |
| 2026-05-07 20:47 | 44.55626 | 11.23072 | 868 ft | 130 kts | 116° |
| 2026-05-07 20:47 | 44.55226 | 11.24187 | 695 ft | 130 kts | 116° |
| 2026-05-07 20:47 | 44.54820 | 11.25315 | 527 ft | 130 kts | 116° |
| 2026-05-07 20:48 | 44.54414 | 11.26449 | 354 ft | 130 kts | 116° |
| 2026-05-07 20:48 | 44.54006 | 11.27585 | 190 ft | 131 kts | 116° |
| 2026-05-07 20:48 | 44.53616 | 11.28669 | 135 ft | 112 kts | 116° |
| 2026-05-07 20:48 | 44.53353 | 11.29403 | 137 ft | 55 kts | 116° |
| 2026-05-07 20:49 | 44.53225 | 11.29765 | 135 ft | 35 kts | 117° |
| 2026-05-07 20:49 | 44.53114 | 11.29937 | 134 ft | 23 kts | 200° |
| 2026-05-07 20:49 | 44.53044 | 11.29825 | 136 ft | 11 kts | 238° |